Terminal Aerodrome Forecast
Issued by NWS Jacksonville, FL

Home | Current Version | Previous Version | Text Only | Print | Product List | Glossary On
Versions: 1 2 3 4 5 6 7 8 9 10 11 12 13 14 15 16 17 18 19 20 21 22 23 24 25 26 27 28 29 30 31 32 33 34 35 36 37
000
FTUS42 KJAX 190900 AAA
TAFJAX
TAF AMD
KJAX 190944Z 1910/2006 VRB06KT P6SM VCSH SCT010 BKN015
      TEMPO 1910/1914 BKN005
     FM191400 VRB06KT P6SM VCSH SCT010 BKN020
     FM191900 35008KT P6SM VCSH BKN035
     FM200300 02008KT P6SM SCT008 BKN010=

USA.gov is the U.S. government's official web portal to all federal, state and local government web resources and services.